Terminal Aerodrome Forecast
Issued by NWS

Home | Current Version | Previous Version | Text Only | Print | Product List | Glossary On
Versions: 1 2 3 4 5 6 7 8 9 10 11 12 13 14 15 16 17
136
FTUS44 KCRP 302353 CCA
TAFLRD
TAF COR
KLRD 302353Z 0100/0124 04003KT P6SM SCT250
     FM010900 10005KT 6SM HZ SCT009 BKN012
      TEMPO 0110/0112 3SM BR
     FM011600 09007KT P6SM SCT025
      TEMPO 0116/0118 BKN025
     FM012000 09012G18KT P6SM SCT040=

USA.gov is the U.S. government's official web portal to all federal, state and local government web resources and services.